首页
METAR-TAF:

METAR-TAF

机场 :

雅库茨克, 俄罗斯

纬度: 62-01N, 经度: 129-43E, 海拔: 103米

当前天气观测

该预报发布于40分钟前的14:00 UTC
风速2节,风向西北
温度 -25°C
湿度 76%
气压 1015 hPa
能见度10公里或以上
小雪

METAR: UEEE 201400Z 31001MPS 9999 -SN NSC M25/M28 Q1015 R23L/490150 NOSIG RMK QFE752

时间: 23:40 (14:40 UTC)

预报

该预报发布于40分钟前的14:00 UTC
预报有效从20日的 15点(UTC)到 20日的 21点(UTC)
风速6节,风向西转西北
能見度: 5000
散云层高于2000英尺
阴天层高于7000英尺
小雪
短暂存在
从 20日的 15点(UTC)到 21日的 03点(UTC)
能見度: 0300
层高于300英尺
雪, 冻雾

TAF: UEEE 201400Z 2015/2021 30003MPS 5000 -SN SCT020 OVC070 TEMPO 2015/2103 0300 SN FZFG VV003

超过4000个机场的气象观测和天气预报(METAR&TAF报告)。

可查询的气象台以黄色和红色小点在地图上表示。

将鼠标移到小点上方,可查看气象台名称。

然后点击查看天气观测和预报。

如需切换地图:点击带黑十字的绿色按钮放大地图;点击带横线的绿色按钮缩小地图;或者点击绿色箭头查看邻近地区的地图。


METAR-TAF: